sensor_id;sensor_type;location;lat;lon;timestamp;temperature;humidity
55036;DHT22;40936;53.008;6.556;2022-10-22T00:00:28;19.20;99.90
55036;DHT22;40936;53.008;6.556;2022-10-22T00:02:54;19.20;99.90
55036;DHT22;40936;53.008;6.556;2022-10-22T00:05:19;19.20;99.90
55036;DHT22;40936;53.008;6.556;2022-10-22T00:07:45;19.20;99.90
55036;DHT22;40936;53.008;6.556;2022-10-22T00:10:11;19.30;99.90
55036;DHT22;40936;53.008;6.556;2022-10-22T00:12:37;19.20;99.90
55036;DHT22;40936;53.008;6.556;2022-10-22T00:15:04;19.20;99.90
55036;DHT22;40936;53.008;6.556;2022-10-22T00:17:29;19.00;99.90
55036;DHT22;40936;53.008;6.556;2022-10-22T00:19:55;19.10;99.90
55036;DHT22;40936;53.008;6.556;2022-10-22T00:22:21;19.30;99.90
55036;DHT22;40936;53.008;6.556;2022-10-22T00:24:46;19.10;99.90
55036;DHT22;40936;53.008;6.556;2022-10-22T00:27:12;19.20;99.90
55036;DHT22;40936;53.008;6.556;2022-10-22T00:29:38;19.30;99.90
55036;DHT22;40936;53.008;6.556;2022-10-22T00:32:05;19.00;99.90
55036;DHT22;40936;53.008;6.556;2022-10-22T00:34:31;19.00;99.90
55036;DHT22;40936;53.008;6.556;2022-10-22T00:36:57;19.00;99.90
55036;DHT22;40936;53.008;6.556;2022-10-22T00:39:24;19.00;99.90
55036;DHT22;40936;53.008;6.556;2022-10-22T00:41:51;19.00;99.90
55036;DHT22;40936;53.008;6.556;2022-10-22T00:47:22;19.00;99.90
55036;DHT22;40936;53.008;6.556;2022-10-22T00:49:49;19.10;99.90
55036;DHT22;40936;53.008;6.556;2022-10-22T00:52:15;19.10;99.90
55036;DHT22;40936;53.008;6.556;2022-10-22T00:54:41;19.00;99.90
55036;DHT22;40936;53.008;6.556;2022-10-22T00:57:08;18.90;99.90
55036;DHT22;40936;53.008;6.556;2022-10-22T00:59:35;19.10;99.90
55036;DHT22;40936;53.008;6.556;2022-10-22T01:02:01;19.00;99.90
55036;DHT22;40936;53.008;6.556;2022-10-22T01:04:26;19.00;99.90
55036;DHT22;40936;53.008;6.556;2022-10-22T01:06:52;18.90;99.90
55036;DHT22;40936;53.008;6.556;2022-10-22T01:09:24;18.80;99.90
55036;DHT22;40936;53.008;6.556;2022-10-22T01:14:45;19.00;99.90
55036;DHT22;40936;53.008;6.556;2022-10-22T01:17:29;18.90;99.90
55036;DHT22;40936;53.008;6.556;2022-10-22T01:31:12;19.10;99.90
55036;DHT22;40936;53.008;6.556;2022-10-22T01:33:41;19.20;99.90
55036;DHT22;40936;53.008;6.556;2022-10-22T01:36:08;19.00;99.90
55036;DHT22;40936;53.008;6.556;2022-10-22T01:38:35;19.10;99.90
55036;DHT22;40936;53.008;6.556;2022-10-22T01:41:02;19.00;99.90
55036;DHT22;40936;53.008;6.556;2022-10-22T01:43:28;19.20;99.90
55036;DHT22;40936;53.008;6.556;2022-10-22T01:45:57;19.00;99.90
55036;DHT22;40936;53.008;6.556;2022-10-22T01:54:35;19.00;99.90
55036;DHT22;40936;53.008;6.556;2022-10-22T02:00:06;19.20;99.90
55036;DHT22;40936;53.008;6.556;2022-10-22T02:03:03;19.10;99.90
55036;DHT22;40936;53.008;6.556;2022-10-22T02:05:41;19.10;99.90
55036;DHT22;40936;53.008;6.556;2022-10-22T02:08:16;19.10;99.90
55036;DHT22;40936;53.008;6.556;2022-10-22T02:10:45;19.20;99.90
55036;DHT22;40936;53.008;6.556;2022-10-22T02:13:16;19.40;99.90
55036;DHT22;40936;53.008;6.556;2022-10-22T02:15:44;19.10;99.90
55036;DHT22;40936;53.008;6.556;2022-10-22T02:18:10;19.10;99.90
55036;DHT22;40936;53.008;6.556;2022-10-22T02:20:38;19.10;99.90
55036;DHT22;40936;53.008;6.556;2022-10-22T02:23:06;19.30;99.90
55036;DHT22;40936;53.008;6.556;2022-10-22T02:25:35;19.40;99.90
55036;DHT22;40936;53.008;6.556;2022-10-22T02:28:24;19.30;99.90
55036;DHT22;40936;53.008;6.556;2022-10-22T02:30:55;19.40;99.90
55036;DHT22;40936;53.008;6.556;2022-10-22T02:33:29;19.20;99.90
55036;DHT22;40936;53.008;6.556;2022-10-22T02:35:56;19.40;99.90
55036;DHT22;40936;53.008;6.556;2022-10-22T02:38:24;19.30;99.90
55036;DHT22;40936;53.008;6.556;2022-10-22T02:40:50;19.30;99.90
55036;DHT22;40936;53.008;6.556;2022-10-22T02:43:17;19.40;99.90
55036;DHT22;40936;53.008;6.556;2022-10-22T02:45:43;19.30;99.90
55036;DHT22;40936;53.008;6.556;2022-10-22T02:48:09;19.10;99.90
55036;DHT22;40936;53.008;6.556;2022-10-22T02:50:35;19.40;99.90
55036;DHT22;40936;53.008;6.556;2022-10-22T02:53:01;19.40;99.90
55036;DHT22;40936;53.008;6.556;2022-10-22T02:55:27;19.40;99.90
55036;DHT22;40936;53.008;6.556;2022-10-22T02:57:53;19.40;99.90
55036;DHT22;40936;53.008;6.556;2022-10-22T03:00:19;19.20;99.90
55036;DHT22;40936;53.008;6.556;2022-10-22T03:02:44;19.20;99.90
55036;DHT22;40936;53.008;6.556;2022-10-22T03:05:10;19.20;99.90
55036;DHT22;40936;53.008;6.556;2022-10-22T03:07:36;19.20;99.90
55036;DHT22;40936;53.008;6.556;2022-10-22T03:10:02;19.20;99.90
55036;DHT22;40936;53.008;6.556;2022-10-22T03:12:28;19.40;99.90
55036;DHT22;40936;53.008;6.556;2022-10-22T03:14:54;19.20;99.90
55036;DHT22;40936;53.008;6.556;2022-10-22T03:17:19;19.20;99.90
55036;DHT22;40936;53.008;6.556;2022-10-22T03:19:45;19.10;99.90
55036;DHT22;40936;53.008;6.556;2022-10-22T03:22:24;19.30;99.90
55036;DHT22;40936;53.008;6.556;2022-10-22T03:24:54;19.20;99.90
55036;DHT22;40936;53.008;6.556;2022-10-22T03:27:22;19.10;99.90
55036;DHT22;40936;53.008;6.556;2022-10-22T03:29:49;19.10;99.90
55036;DHT22;40936;53.008;6.556;2022-10-22T03:32:16;19.10;99.90
55036;DHT22;40936;53.008;6.556;2022-10-22T03:34:41;19.20;99.90
55036;DHT22;40936;53.008;6.556;2022-10-22T03:37:07;19.00;99.90
55036;DHT22;40936;53.008;6.556;2022-10-22T03:39:34;18.90;99.90
55036;DHT22;40936;53.008;6.556;2022-10-22T03:42:01;18.90;99.90
55036;DHT22;40936;53.008;6.556;2022-10-22T03:44:28;18.90;99.90
55036;DHT22;40936;53.008;6.556;2022-10-22T03:46:54;18.90;99.90
55036;DHT22;40936;53.008;6.556;2022-10-22T03:49:19;19.10;99.90
55036;DHT22;40936;53.008;6.556;2022-10-22T03:51:45;19.10;99.90
55036;DHT22;40936;53.008;6.556;2022-10-22T03:54:11;19.10;99.90
55036;DHT22;40936;53.008;6.556;2022-10-22T03:56:36;19.00;99.90
55036;DHT22;40936;53.008;6.556;2022-10-22T03:59:02;19.00;99.90
55036;DHT22;40936;53.008;6.556;2022-10-22T04:01:29;19.00;99.90
55036;DHT22;40936;53.008;6.556;2022-10-22T04:03:55;19.00;99.90
55036;DHT22;40936;53.008;6.556;2022-10-22T04:06:22;19.00;99.90
55036;DHT22;40936;53.008;6.556;2022-10-22T04:08:47;19.10;99.90
55036;DHT22;40936;53.008;6.556;2022-10-22T04:11:14;18.80;99.90
55036;DHT22;40936;53.008;6.556;2022-10-22T04:13:41;19.10;99.90
55036;DHT22;40936;53.008;6.556;2022-10-22T04:16:16;19.10;99.90
55036;DHT22;40936;53.008;6.556;2022-10-22T04:18:43;19.10;99.90
55036;DHT22;40936;53.008;6.556;2022-10-22T04:21:10;19.10;99.90
55036;DHT22;40936;53.008;6.556;2022-10-22T04:23:36;19.10;99.90
55036;DHT22;40936;53.008;6.556;2022-10-22T04:26:05;18.90;99.90
55036;DHT22;40936;53.008;6.556;2022-10-22T04:28:30;19.10;99.90
55036;DHT22;40936;53.008;6.556;2022-10-22T04:30:56;19.00;99.90
55036;DHT22;40936;53.008;6.556;2022-10-22T04:33:22;18.90;99.90
55036;DHT22;40936;53.008;6.556;2022-10-22T04:35:48;19.10;99.90
55036;DHT22;40936;53.008;6.556;2022-10-22T04:38:13;19.10;99.90
55036;DHT22;40936;53.008;6.556;2022-10-22T04:40:39;19.00;99.90
55036;DHT22;40936;53.008;6.556;2022-10-22T04:43:05;19.00;99.90
55036;DHT22;40936;53.008;6.556;2022-10-22T04:45:34;18.90;99.90
55036;DHT22;40936;53.008;6.556;2022-10-22T04:48:00;19.10;99.90
55036;DHT22;40936;53.008;6.556;2022-10-22T04:50:26;18.90;99.90
55036;DHT22;40936;53.008;6.556;2022-10-22T04:52:52;19.10;99.90
55036;DHT22;40936;53.008;6.556;2022-10-22T04:55:18;19.00;99.90
55036;DHT22;40936;53.008;6.556;2022-10-22T04:57:43;19.10;99.90
55036;DHT22;40936;53.008;6.556;2022-10-22T05:00:09;19.00;99.90
55036;DHT22;40936;53.008;6.556;2022-10-22T05:02:35;18.90;99.90
55036;DHT22;40936;53.008;6.556;2022-10-22T05:05:01;18.90;99.90
55036;DHT22;40936;53.008;6.556;2022-10-22T05:07:27;19.10;99.90
55036;DHT22;40936;53.008;6.556;2022-10-22T05:09:53;19.10;99.90
55036;DHT22;40936;53.008;6.556;2022-10-22T05:12:18;19.00;99.90
55036;DHT22;40936;53.008;6.556;2022-10-22T05:14:44;18.80;99.90
55036;DHT22;40936;53.008;6.556;2022-10-22T05:17:10;19.00;99.90
55036;DHT22;40936;53.008;6.556;2022-10-22T05:19:36;19.00;99.90
55036;DHT22;40936;53.008;6.556;2022-10-22T05:22:03;18.70;99.90
55036;DHT22;40936;53.008;6.556;2022-10-22T05:24:30;18.90;99.90
55036;DHT22;40936;53.008;6.556;2022-10-22T05:26:57;18.80;99.90
55036;DHT22;40936;53.008;6.556;2022-10-22T05:29:27;18.80;99.90
55036;DHT22;40936;53.008;6.556;2022-10-22T05:31:53;19.10;99.90
55036;DHT22;40936;53.008;6.556;2022-10-22T05:34:19;18.90;99.90
55036;DHT22;40936;53.008;6.556;2022-10-22T05:36:45;19.30;99.90
55036;DHT22;40936;53.008;6.556;2022-10-22T05:39:11;18.80;99.90
55036;DHT22;40936;53.008;6.556;2022-10-22T05:41:36;19.10;99.90
55036;DHT22;40936;53.008;6.556;2022-10-22T05:44:03;19.20;99.90
55036;DHT22;40936;53.008;6.556;2022-10-22T05:46:32;18.70;99.90
55036;DHT22;40936;53.008;6.556;2022-10-22T05:49:01;19.20;99.90
55036;DHT22;40936;53.008;6.556;2022-10-22T05:51:29;19.10;99.90
55036;DHT22;40936;53.008;6.556;2022-10-22T05:54:00;19.30;99.90
55036;DHT22;40936;53.008;6.556;2022-10-22T05:56:28;19.30;99.90
55036;DHT22;40936;53.008;6.556;2022-10-22T05:58:54;18.80;99.90
55036;DHT22;40936;53.008;6.556;2022-10-22T06:01:29;19.30;99.90
55036;DHT22;40936;53.008;6.556;2022-10-22T06:03:57;18.90;99.90
55036;DHT22;40936;53.008;6.556;2022-10-22T06:06:30;19.30;99.90
55036;DHT22;40936;53.008;6.556;2022-10-22T06:09:10;19.10;99.90
55036;DHT22;40936;53.008;6.556;2022-10-22T06:11:38;18.90;99.90
55036;DHT22;40936;53.008;6.556;2022-10-22T06:14:03;19.10;99.90
55036;DHT22;40936;53.008;6.556;2022-10-22T06:16:30;19.40;99.90
55036;DHT22;40936;53.008;6.556;2022-10-22T06:19:01;19.00;99.90
55036;DHT22;40936;53.008;6.556;2022-10-22T06:21:28;19.10;99.90
55036;DHT22;40936;53.008;6.556;2022-10-22T06:23:58;19.00;99.90
55036;DHT22;40936;53.008;6.556;2022-10-22T06:26:24;18.90;99.90
55036;DHT22;40936;53.008;6.556;2022-10-22T06:28:50;19.10;99.90
55036;DHT22;40936;53.008;6.556;2022-10-22T06:31:16;19.50;99.90
55036;DHT22;40936;53.008;6.556;2022-10-22T06:33:42;19.50;99.90
55036;DHT22;40936;53.008;6.556;2022-10-22T06:36:12;19.10;99.90
55036;DHT22;40936;53.008;6.556;2022-10-22T06:38:39;19.50;99.90
55036;DHT22;40936;53.008;6.556;2022-10-22T06:41:07;19.20;99.90
55036;DHT22;40936;53.008;6.556;2022-10-22T06:43:33;19.40;99.90
55036;DHT22;40936;53.008;6.556;2022-10-22T06:46:01;19.20;99.90
55036;DHT22;40936;53.008;6.556;2022-10-22T06:48:27;19.30;99.90
55036;DHT22;40936;53.008;6.556;2022-10-22T06:50:52;19.20;99.90
55036;DHT22;40936;53.008;6.556;2022-10-22T06:53:18;19.60;99.90
55036;DHT22;40936;53.008;6.556;2022-10-22T06:55:44;19.80;99.90
55036;DHT22;40936;53.008;6.556;2022-10-22T06:58:10;19.50;99.90
55036;DHT22;40936;53.008;6.556;2022-10-22T07:00:36;19.50;99.90
55036;DHT22;40936;53.008;6.556;2022-10-22T07:03:01;19.40;99.90
55036;DHT22;40936;53.008;6.556;2022-10-22T07:05:27;19.70;99.90
55036;DHT22;40936;53.008;6.556;2022-10-22T07:07:52;19.80;99.90
55036;DHT22;40936;53.008;6.556;2022-10-22T07:10:18;19.50;99.90
55036;DHT22;40936;53.008;6.556;2022-10-22T07:12:44;19.80;99.90
55036;DHT22;40936;53.008;6.556;2022-10-22T07:15:10;19.80;99.90
55036;DHT22;40936;53.008;6.556;2022-10-22T07:17:36;20.00;99.90
55036;DHT22;40936;53.008;6.556;2022-10-22T07:20:02;20.10;99.90
55036;DHT22;40936;53.008;6.556;2022-10-22T07:22:28;19.70;99.90
55036;DHT22;40936;53.008;6.556;2022-10-22T07:24:53;19.60;99.90
55036;DHT22;40936;53.008;6.556;2022-10-22T07:27:19;20.00;99.90
55036;DHT22;40936;53.008;6.556;2022-10-22T07:29:45;19.80;99.90
55036;DHT22;40936;53.008;6.556;2022-10-22T07:32:11;20.30;99.90
55036;DHT22;40936;53.008;6.556;2022-10-22T07:34:36;19.80;99.90
55036;DHT22;40936;53.008;6.556;2022-10-22T07:37:02;20.20;99.90
55036;DHT22;40936;53.008;6.556;2022-10-22T07:39:28;19.90;99.90
55036;DHT22;40936;53.008;6.556;2022-10-22T07:41:53;20.00;99.90
55036;DHT22;40936;53.008;6.556;2022-10-22T07:44:19;20.00;99.90
55036;DHT22;40936;53.008;6.556;2022-10-22T07:46:45;20.30;99.90
55036;DHT22;40936;53.008;6.556;2022-10-22T07:49:10;20.00;99.90
55036;DHT22;40936;53.008;6.556;2022-10-22T07:51:36;20.50;99.90
55036;DHT22;40936;53.008;6.556;2022-10-22T07:54:02;20.30;99.90
55036;DHT22;40936;53.008;6.556;2022-10-22T07:56:28;20.50;99.90
55036;DHT22;40936;53.008;6.556;2022-10-22T07:58:54;20.20;99.90
55036;DHT22;40936;53.008;6.556;2022-10-22T08:01:19;20.30;99.90
55036;DHT22;40936;53.008;6.556;2022-10-22T08:03:45;20.30;99.90
55036;DHT22;40936;53.008;6.556;2022-10-22T08:06:14;20.30;99.90
55036;DHT22;40936;53.008;6.556;2022-10-22T08:08:40;20.30;99.90
55036;DHT22;40936;53.008;6.556;2022-10-22T08:11:09;20.20;99.90
55036;DHT22;40936;53.008;6.556;2022-10-22T08:13:34;20.30;99.90
55036;DHT22;40936;53.008;6.556;2022-10-22T08:16:00;20.70;99.90
55036;DHT22;40936;53.008;6.556;2022-10-22T08:18:27;20.70;99.90
55036;DHT22;40936;53.008;6.556;2022-10-22T08:20:53;20.80;99.90
55036;DHT22;40936;53.008;6.556;2022-10-22T08:23:19;20.80;99.90
55036;DHT22;40936;53.008;6.556;2022-10-22T08:25:45;20.60;99.90
55036;DHT22;40936;53.008;6.556;2022-10-22T08:28:11;20.50;99.90
55036;DHT22;40936;53.008;6.556;2022-10-22T08:30:37;20.70;99.90
55036;DHT22;40936;53.008;6.556;2022-10-22T08:33:04;21.20;99.90
55036;DHT22;40936;53.008;6.556;2022-10-22T08:35:30;22.20;99.90
55036;DHT22;40936;53.008;6.556;2022-10-22T08:37:55;22.60;99.90
55036;DHT22;40936;53.008;6.556;2022-10-22T08:40:39;23.10;99.90
55036;DHT22;40936;53.008;6.556;2022-10-22T08:43:25;23.40;99.90
55036;DHT22;40936;53.008;6.556;2022-10-22T08:48:56;23.90;99.90
55036;DHT22;40936;53.008;6.556;2022-10-22T08:51:30;23.40;99.90
55036;DHT22;40936;53.008;6.556;2022-10-22T08:56:36;23.40;99.90
55036;DHT22;40936;53.008;6.556;2022-10-22T09:01:49;24.00;99.90
55036;DHT22;40936;53.008;6.556;2022-10-22T09:04:30;24.30;99.90
55036;DHT22;40936;53.008;6.556;2022-10-22T09:06:58;24.40;99.90
55036;DHT22;40936;53.008;6.556;2022-10-22T09:09:32;24.20;99.90
55036;DHT22;40936;53.008;6.556;2022-10-22T09:12:02;23.90;99.90
55036;DHT22;40936;53.008;6.556;2022-10-22T09:14:28;23.80;99.90
55036;DHT22;40936;53.008;6.556;2022-10-22T09:18:24;23.80;99.90
55036;DHT22;40936;53.008;6.556;2022-10-22T09:20:19;23.40;99.90
55036;DHT22;40936;53.008;6.556;2022-10-22T09:23:36;23.00;99.90
55036;DHT22;40936;53.008;6.556;2022-10-22T09:26:11;22.20;99.90
55036;DHT22;40936;53.008;6.556;2022-10-22T09:28:37;22.50;99.90
55036;DHT22;40936;53.008;6.556;2022-10-22T09:31:12;22.30;99.90
55036;DHT22;40936;53.008;6.556;2022-10-22T09:33:39;22.20;99.90
55036;DHT22;40936;53.008;6.556;2022-10-22T09:36:06;22.10;99.90
55036;DHT22;40936;53.008;6.556;2022-10-22T09:38:54;22.20;99.90
55036;DHT22;40936;53.008;6.556;2022-10-22T09:41:23;22.20;99.90
55036;DHT22;40936;53.008;6.556;2022-10-22T09:43:49;22.50;99.90
55036;DHT22;40936;53.008;6.556;2022-10-22T09:46:18;22.20;99.90
55036;DHT22;40936;53.008;6.556;2022-10-22T09:48:50;22.40;99.90
55036;DHT22;40936;53.008;6.556;2022-10-22T09:51:56;22.10;99.90
55036;DHT22;40936;53.008;6.556;2022-10-22T09:59:37;22.20;99.90
55036;DHT22;40936;53.008;6.556;2022-10-22T10:02:18;22.00;99.90
55036;DHT22;40936;53.008;6.556;2022-10-22T10:04:53;22.10;99.90
55036;DHT22;40936;53.008;6.556;2022-10-22T10:07:21;21.90;99.90
55036;DHT22;40936;53.008;6.556;2022-10-22T10:09:48;22.10;99.90
55036;DHT22;40936;53.008;6.556;2022-10-22T10:15:19;21.90;99.90
55036;DHT22;40936;53.008;6.556;2022-10-22T10:20:38;22.00;99.90
55036;DHT22;40936;53.008;6.556;2022-10-22T10:32:05;22.20;99.90
55036;DHT22;40936;53.008;6.556;2022-10-22T10:42:34;22.40;99.90
55036;DHT22;40936;53.008;6.556;2022-10-22T10:45:23;22.20;99.90
55036;DHT22;40936;53.008;6.556;2022-10-22T10:48:11;22.20;99.90
55036;DHT22;40936;53.008;6.556;2022-10-22T10:53:16;22.00;99.90
55036;DHT22;40936;53.008;6.556;2022-10-22T11:06:36;21.80;99.90
55036;DHT22;40936;53.008;6.556;2022-10-22T11:09:23;22.00;99.90
55036;DHT22;40936;53.008;6.556;2022-10-22T11:11:58;21.70;99.90
55036;DHT22;40936;53.008;6.556;2022-10-22T11:14:40;21.80;99.90
55036;DHT22;40936;53.008;6.556;2022-10-22T11:17:22;21.80;99.90
55036;DHT22;40936;53.008;6.556;2022-10-22T11:22:40;21.80;99.90
55036;DHT22;40936;53.008;6.556;2022-10-22T11:25:26;21.70;99.90
55036;DHT22;40936;53.008;6.556;2022-10-22T11:30:27;21.80;99.90
55036;DHT22;40936;53.008;6.556;2022-10-22T11:33:01;21.90;99.90
55036;DHT22;40936;53.008;6.556;2022-10-22T11:35:33;21.80;99.90
55036;DHT22;40936;53.008;6.556;2022-10-22T11:38:02;21.90;99.90
55036;DHT22;40936;53.008;6.556;2022-10-22T11:40:35;21.80;99.90
55036;DHT22;40936;53.008;6.556;2022-10-22T11:43:06;22.10;99.90
55036;DHT22;40936;53.008;6.556;2022-10-22T11:50:48;22.10;99.90
55036;DHT22;40936;53.008;6.556;2022-10-22T11:56:36;22.00;99.90
55036;DHT22;40936;53.008;6.556;2022-10-22T12:06:21;21.90;99.90
55036;DHT22;40936;53.008;6.556;2022-10-22T12:11:44;21.90;99.90
55036;DHT22;40936;53.008;6.556;2022-10-22T12:14:24;21.80;99.90
55036;DHT22;40936;53.008;6.556;2022-10-22T12:19:37;21.90;99.90
55036;DHT22;40936;53.008;6.556;2022-10-22T12:22:34;21.90;99.90
55036;DHT22;40936;53.008;6.556;2022-10-22T12:25:01;21.90;99.90
55036;DHT22;40936;53.008;6.556;2022-10-22T12:27:37;21.90;99.90
55036;DHT22;40936;53.008;6.556;2022-10-22T12:32:41;21.70;99.90
55036;DHT22;40936;53.008;6.556;2022-10-22T12:35:15;21.80;99.90
55036;DHT22;40936;53.008;6.556;2022-10-22T12:37:41;22.00;99.90
55036;DHT22;40936;53.008;6.556;2022-10-22T12:40:24;21.10;99.90
55036;DHT22;40936;53.008;6.556;2022-10-22T12:42:53;21.50;99.90
55036;DHT22;40936;53.008;6.556;2022-10-22T12:45:19;21.70;99.90
55036;DHT22;40936;53.008;6.556;2022-10-22T12:47:47;21.30;99.90
55036;DHT22;40936;53.008;6.556;2022-10-22T12:50:22;22.40;99.90
55036;DHT22;40936;53.008;6.556;2022-10-22T12:52:48;22.30;99.90
55036;DHT22;40936;53.008;6.556;2022-10-22T12:55:16;21.20;99.90
55036;DHT22;40936;53.008;6.556;2022-10-22T12:57:42;21.30;99.90
55036;DHT22;40936;53.008;6.556;2022-10-22T13:00:20;21.30;99.90
55036;DHT22;40936;53.008;6.556;2022-10-22T13:02:46;22.60;99.90
55036;DHT22;40936;53.008;6.556;2022-10-22T13:08:10;21.30;99.90
55036;DHT22;40936;53.008;6.556;2022-10-22T13:10:39;22.40;99.90
55036;DHT22;40936;53.008;6.556;2022-10-22T13:13:29;21.70;99.90
55036;DHT22;40936;53.008;6.556;2022-10-22T13:15:55;21.50;99.90
55036;DHT22;40936;53.008;6.556;2022-10-22T13:18:22;22.90;99.90
55036;DHT22;40936;53.008;6.556;2022-10-22T13:20:58;22.80;99.90
55036;DHT22;40936;53.008;6.556;2022-10-22T13:23:27;22.20;99.90
55036;DHT22;40936;53.008;6.556;2022-10-22T13:25:58;21.70;99.90
55036;DHT22;40936;53.008;6.556;2022-10-22T13:28:25;22.60;99.90
55036;DHT22;40936;53.008;6.556;2022-10-22T13:30:57;21.70;99.90
55036;DHT22;40936;53.008;6.556;2022-10-22T13:33:31;22.70;99.90
55036;DHT22;40936;53.008;6.556;2022-10-22T13:35:58;22.80;99.90
55036;DHT22;40936;53.008;6.556;2022-10-22T13:38:25;22.60;99.90
55036;DHT22;40936;53.008;6.556;2022-10-22T13:40:51;21.80;99.90
55036;DHT22;40936;53.008;6.556;2022-10-22T13:43:17;21.80;99.90
55036;DHT22;40936;53.008;6.556;2022-10-22T13:45:44;22.10;99.90
55036;DHT22;40936;53.008;6.556;2022-10-22T13:48:15;22.70;99.90
55036;DHT22;40936;53.008;6.556;2022-10-22T13:50:42;21.60;99.90
55036;DHT22;40936;53.008;6.556;2022-10-22T13:53:27;22.60;99.90
55036;DHT22;40936;53.008;6.556;2022-10-22T13:55:53;22.70;99.90
55036;DHT22;40936;53.008;6.556;2022-10-22T13:58:20;21.80;99.90
55036;DHT22;40936;53.008;6.556;2022-10-22T14:00:53;22.60;99.90
55036;DHT22;40936;53.008;6.556;2022-10-22T14:03:32;22.70;99.90
55036;DHT22;40936;53.008;6.556;2022-10-22T14:05:59;22.10;99.90
55036;DHT22;40936;53.008;6.556;2022-10-22T14:08:26;21.80;99.90
55036;DHT22;40936;53.008;6.556;2022-10-22T14:10:52;21.90;99.90
55036;DHT22;40936;53.008;6.556;2022-10-22T14:13:19;22.10;99.90
55036;DHT22;40936;53.008;6.556;2022-10-22T14:15:47;22.70;99.90
55036;DHT22;40936;53.008;6.556;2022-10-22T14:18:17;22.10;99.90
55036;DHT22;40936;53.008;6.556;2022-10-22T14:20:54;22.80;99.90
55036;DHT22;40936;53.008;6.556;2022-10-22T14:23:22;22.80;99.90
55036;DHT22;40936;53.008;6.556;2022-10-22T14:25:48;22.80;99.90
55036;DHT22;40936;53.008;6.556;2022-10-22T14:28:17;22.30;99.90
55036;DHT22;40936;53.008;6.556;2022-10-22T14:30:43;22.30;99.90
55036;DHT22;40936;53.008;6.556;2022-10-22T14:33:14;22.20;99.90
55036;DHT22;40936;53.008;6.556;2022-10-22T14:35:40;22.90;99.90
55036;DHT22;40936;53.008;6.556;2022-10-22T14:38:05;23.00;99.90
55036;DHT22;40936;53.008;6.556;2022-10-22T14:40:31;22.50;99.90
55036;DHT22;40936;53.008;6.556;2022-10-22T14:42:57;22.30;99.90
55036;DHT22;40936;53.008;6.556;2022-10-22T14:45:25;23.10;99.90
55036;DHT22;40936;53.008;6.556;2022-10-22T14:47:52;22.70;99.90
55036;DHT22;40936;53.008;6.556;2022-10-22T14:50:22;22.30;99.90
55036;DHT22;40936;53.008;6.556;2022-10-22T14:52:49;21.90;99.90
55036;DHT22;40936;53.008;6.556;2022-10-22T14:55:16;22.20;99.90
55036;DHT22;40936;53.008;6.556;2022-10-22T14:57:42;21.50;99.90
55036;DHT22;40936;53.008;6.556;2022-10-22T15:00:16;21.50;99.90
55036;DHT22;40936;53.008;6.556;2022-10-22T15:02:43;21.10;99.90
55036;DHT22;40936;53.008;6.556;2022-10-22T15:05:09;21.00;99.90
55036;DHT22;40936;53.008;6.556;2022-10-22T15:07:35;21.70;99.90
55036;DHT22;40936;53.008;6.556;2022-10-22T15:10:01;21.00;99.90
55036;DHT22;40936;53.008;6.556;2022-10-22T15:12:27;21.00;99.90
55036;DHT22;40936;53.008;6.556;2022-10-22T15:14:52;21.30;99.90
55036;DHT22;40936;53.008;6.556;2022-10-22T15:17:18;21.20;99.90
55036;DHT22;40936;53.008;6.556;2022-10-22T15:19:45;20.70;99.90
55036;DHT22;40936;53.008;6.556;2022-10-22T15:22:12;20.90;99.90
55036;DHT22;40936;53.008;6.556;2022-10-22T15:24:39;21.20;99.90
55036;DHT22;40936;53.008;6.556;2022-10-22T15:27:05;21.30;99.90
55036;DHT22;40936;53.008;6.556;2022-10-22T15:29:31;20.60;99.90
55036;DHT22;40936;53.008;6.556;2022-10-22T15:31:58;21.10;99.90
55036;DHT22;40936;53.008;6.556;2022-10-22T15:34:29;20.70;99.90
55036;DHT22;40936;53.008;6.556;2022-10-22T15:36:57;20.40;99.90
55036;DHT22;40936;53.008;6.556;2022-10-22T15:39:23;20.30;99.90
55036;DHT22;40936;53.008;6.556;2022-10-22T15:41:49;21.00;99.90
55036;DHT22;40936;53.008;6.556;2022-10-22T15:44:17;21.00;99.90
55036;DHT22;40936;53.008;6.556;2022-10-22T15:46:44;21.00;99.90
55036;DHT22;40936;53.008;6.556;2022-10-22T15:49:10;20.60;99.90
55036;DHT22;40936;53.008;6.556;2022-10-22T15:51:36;20.70;99.90
55036;DHT22;40936;53.008;6.556;2022-10-22T15:54:01;20.00;99.90
55036;DHT22;40936;53.008;6.556;2022-10-22T15:56:28;20.80;99.90
55036;DHT22;40936;53.008;6.556;2022-10-22T15:58:56;20.30;99.90
55036;DHT22;40936;53.008;6.556;2022-10-22T16:01:22;20.00;99.90
55036;DHT22;40936;53.008;6.556;2022-10-22T16:03:49;20.30;99.90
55036;DHT22;40936;53.008;6.556;2022-10-22T16:06:18;20.20;99.90
55036;DHT22;40936;53.008;6.556;2022-10-22T16:08:44;20.70;99.90
55036;DHT22;40936;53.008;6.556;2022-10-22T16:11:09;20.60;99.90
55036;DHT22;40936;53.008;6.556;2022-10-22T16:13:35;20.70;99.90
55036;DHT22;40936;53.008;6.556;2022-10-22T16:16:06;19.80;99.90
55036;DHT22;40936;53.008;6.556;2022-10-22T16:18:34;20.00;99.90
55036;DHT22;40936;53.008;6.556;2022-10-22T16:21:00;19.90;99.90
55036;DHT22;40936;53.008;6.556;2022-10-22T16:23:26;20.50;99.90
55036;DHT22;40936;53.008;6.556;2022-10-22T16:25:52;19.90;99.90
55036;DHT22;40936;53.008;6.556;2022-10-22T16:28:17;20.30;99.90
55036;DHT22;40936;53.008;6.556;2022-10-22T16:30:43;19.60;99.90
55036;DHT22;40936;53.008;6.556;2022-10-22T16:33:09;20.30;99.90
55036;DHT22;40936;53.008;6.556;2022-10-22T16:35:40;19.40;99.90
55036;DHT22;40936;53.008;6.556;2022-10-22T16:38:06;19.50;99.90
55036;DHT22;40936;53.008;6.556;2022-10-22T16:40:31;19.30;99.90
55036;DHT22;40936;53.008;6.556;2022-10-22T16:42:57;19.20;99.90
55036;DHT22;40936;53.008;6.556;2022-10-22T16:45:23;20.10;99.90
55036;DHT22;40936;53.008;6.556;2022-10-22T16:47:48;20.10;99.90
55036;DHT22;40936;53.008;6.556;2022-10-22T16:50:14;20.20;99.90
55036;DHT22;40936;53.008;6.556;2022-10-22T16:52:40;19.20;99.90
55036;DHT22;40936;53.008;6.556;2022-10-22T16:55:06;20.00;99.90
55036;DHT22;40936;53.008;6.556;2022-10-22T16:57:32;20.10;99.90
55036;DHT22;40936;53.008;6.556;2022-10-22T16:59:58;19.20;99.90
55036;DHT22;40936;53.008;6.556;2022-10-22T17:02:24;19.50;99.90
55036;DHT22;40936;53.008;6.556;2022-10-22T17:04:50;19.00;99.90
55036;DHT22;40936;53.008;6.556;2022-10-22T17:07:15;19.10;99.90
55036;DHT22;40936;53.008;6.556;2022-10-22T17:09:41;20.00;99.90
55036;DHT22;40936;53.008;6.556;2022-10-22T17:12:07;19.40;99.90
55036;DHT22;40936;53.008;6.556;2022-10-22T17:14:33;19.00;99.90
55036;DHT22;40936;53.008;6.556;2022-10-22T17:16:58;18.90;99.90
55036;DHT22;40936;53.008;6.556;2022-10-22T17:19:35;19.90;99.90
55036;DHT22;40936;53.008;6.556;2022-10-22T17:22:03;19.90;99.90
55036;DHT22;40936;53.008;6.556;2022-10-22T17:24:29;19.50;99.90
55036;DHT22;40936;53.008;6.556;2022-10-22T17:26:54;19.90;99.90